Terminal Aerodrome Forecast
Issued by NWS

Home | Current Version | Previous Version | Text Only | Print | Product List | Glossary On
Versions: 1 2 3 4 5 6 7 8 9 10 11 12 13 14
941
FTUS43 KEAX 060520
TAFMKC
TAF
KMKC 060520Z 0606/0706 VRB03KT P6SM SCT150
     FM060700 33009KT P6SM SCT025 OVC040
     FM061300 32011KT P6SM SCT120
     FM062300 29006KT P6SM BKN200=

USA.gov is the U.S. government's official web portal to all federal, state and local government web resources and services.